createdAt,value
2018-04-01T00:00:58.035Z,57.50
2018-04-01T00:01:58.497Z,56.90
2018-04-01T00:02:57.991Z,60.10
2018-04-01T00:03:57.981Z,58.20
2018-04-01T00:04:57.993Z,58.50
2018-04-01T00:05:57.981Z,56.60
2018-04-01T00:06:57.983Z,57.40
2018-04-01T00:07:57.999Z,57.70
2018-04-01T00:08:57.992Z,58.50
2018-04-01T00:09:57.989Z,56.60
2018-04-01T00:10:57.987Z,54.80
2018-04-01T00:11:57.994Z,55.20
2018-04-01T00:12:57.997Z,53.70
2018-04-01T00:13:57.985Z,53.70
2018-04-01T00:14:57.986Z,51.70
2018-04-01T00:15:57.996Z,49.00
2018-04-01T00:16:58.499Z,49.80
2018-04-01T00:17:57.986Z,49.10
2018-04-01T00:18:57.987Z,47.20
2018-04-01T00:19:57.992Z,49.00
2018-04-01T00:20:57.983Z,47.20
2018-04-01T00:21:58.040Z,47.40
2018-04-01T00:22:57.976Z,46.70
2018-04-01T00:23:57.988Z,48.60
2018-04-01T00:24:57.974Z,46.90
2018-04-01T00:25:57.997Z,47.00
2018-04-01T00:26:57.981Z,46.20
2018-04-01T00:27:57.988Z,48.40
2018-04-01T00:28:57.980Z,49.70
2018-04-01T00:29:58.503Z,47.90
2018-04-01T00:30:57.980Z,46.00
2018-04-01T00:31:57.980Z,48.40
2018-04-01T00:32:57.967Z,49.10
2018-04-01T00:33:57.983Z,47.10
2018-04-01T00:34:57.994Z,48.30
2018-04-01T00:35:57.966Z,46.60
2018-04-01T00:36:57.974Z,48.00
2018-04-01T00:37:57.975Z,46.90
2018-04-01T00:38:57.978Z,46.70
2018-04-01T00:39:57.973Z,44.80
2018-04-01T00:40:57.972Z,45.50
2018-04-01T00:41:57.973Z,47.30
2018-04-01T00:42:57.989Z,47.50
2018-04-01T00:43:57.972Z,47.80
2018-04-01T00:44:57.964Z,47.80
2018-04-01T00:45:57.979Z,50.10
2018-04-01T00:46:57.973Z,48.40
2018-04-01T00:47:57.958Z,48.80
2018-04-01T00:48:57.972Z,48.30
2018-04-01T00:49:57.966Z,47.60
2018-04-01T00:50:57.966Z,48.80
2018-04-01T00:51:57.972Z,47.90
2018-04-01T00:52:57.960Z,48.10
2018-04-01T00:53:57.976Z,46.50
2018-04-01T00:54:57.967Z,48.00
2018-04-01T00:55:57.972Z,49.50
2018-04-01T00:56:57.983Z,49.20
2018-04-01T00:57:57.961Z,47.20
2018-04-01T00:58:57.958Z,48.40
2018-04-01T00:59:57.959Z,47.60
2018-04-01T01:00:57.948Z,48.80
2018-04-01T01:01:57.980Z,48.70
2018-04-01T01:02:57.971Z,50.10
2018-04-01T01:03:58.003Z,50.40
2018-04-01T01:04:57.958Z,48.60
2018-04-01T01:05:57.961Z,49.80
2018-04-01T01:06:57.955Z,49.40
2018-04-01T01:07:57.957Z,49.50
2018-04-01T01:08:57.957Z,51.10
2018-04-01T01:09:57.961Z,48.00
2018-04-01T01:10:57.964Z,49.80
2018-04-01T01:11:57.975Z,49.20
2018-04-01T01:12:57.962Z,50.70
2018-04-01T01:13:57.945Z,49.70
2018-04-01T01:14:57.958Z,51.40
2018-04-01T01:15:57.963Z,50.30
2018-04-01T01:16:57.994Z,51.00
2018-04-01T01:17:57.981Z,52.40
2018-04-01T01:18:57.948Z,51.20
2018-04-01T01:19:57.958Z,52.80
2018-04-01T01:20:57.955Z,51.70
2018-04-01T01:21:57.950Z,54.10
2018-04-01T01:22:57.961Z,53.50
2018-04-01T01:23:57.948Z,52.60
2018-04-01T01:24:57.966Z,53.10
2018-04-01T01:25:57.953Z,52.80
2018-04-01T01:26:57.957Z,52.90
2018-04-01T01:27:57.947Z,55.20
2018-04-01T01:28:57.948Z,53.50
2018-04-01T01:29:57.949Z,55.00
2018-04-01T01:30:57.953Z,54.80
2018-04-01T01:31:57.952Z,55.60
2018-04-01T01:32:57.944Z,53.70
2018-04-01T01:33:57.942Z,56.40
2018-04-01T01:34:57.953Z,55.40
2018-04-01T01:35:57.949Z,54.50
2018-04-01T01:36:57.948Z,56.10
2018-04-01T01:37:57.953Z,55.30
2018-04-01T01:38:57.963Z,56.00
2018-04-01T01:39:57.946Z,57.40
2018-04-01T01:40:57.941Z,55.70
2018-04-01T01:41:57.947Z,55.40
2018-04-01T01:42:57.950Z,57.00
2018-04-01T01:43:57.939Z,55.00
2018-04-01T01:44:57.933Z,55.20
2018-04-01T01:45:57.941Z,57.00
2018-04-01T01:46:57.939Z,55.20
2018-04-01T01:47:58.070Z,53.60
2018-04-01T01:48:57.960Z,54.00
2018-04-01T01:49:57.935Z,55.00
2018-04-01T01:50:57.938Z,54.90
2018-04-01T01:51:57.941Z,55.40
2018-04-01T01:52:57.938Z,55.80
2018-04-01T01:53:57.937Z,54.80
2018-04-01T01:54:57.941Z,56.40
2018-04-01T01:55:57.936Z,54.90
2018-04-01T01:56:57.941Z,56.90
2018-04-01T01:57:57.924Z,55.90
2018-04-01T01:58:57.934Z,54.70
2018-04-01T01:59:57.925Z,54.90
2018-04-01T02:00:58.072Z,55.70
2018-04-01T02:01:57.932Z,55.40
2018-04-01T02:02:57.936Z,53.80
2018-04-01T02:03:57.920Z,54.00
2018-04-01T02:04:57.927Z,52.60
2018-04-01T02:05:57.923Z,51.90
2018-04-01T02:06:57.923Z,54.90
2018-04-01T02:07:57.939Z,53.00
2018-04-01T02:08:57.939Z,51.40
2018-04-01T02:09:57.956Z,53.10
2018-04-01T02:10:57.926Z,53.20
2018-04-01T02:11:57.925Z,51.50
2018-04-01T02:12:57.929Z,49.80
2018-04-01T02:13:58.011Z,51.90
2018-04-01T02:14:57.933Z,51.40
2018-04-01T02:15:57.948Z,52.20
2018-04-01T02:16:57.929Z,50.80
2018-04-01T02:17:57.918Z,51.70
2018-04-01T02:18:58.004Z,53.30
2018-04-01T02:19:57.917Z,53.00
2018-04-01T02:20:57.928Z,53.00
2018-04-01T02:21:57.918Z,51.30
2018-04-01T02:22:57.921Z,51.20
2018-04-01T02:23:57.935Z,51.40
2018-04-01T02:24:57.922Z,50.40
2018-04-01T02:25:57.910Z,51.40
2018-04-01T02:26:57.923Z,51.30
2018-04-01T02:27:57.924Z,51.90
2018-04-01T02:28:57.921Z,51.00
2018-04-01T02:29:57.915Z,52.10
2018-04-01T02:30:57.915Z,51.10
2018-04-01T02:31:57.971Z,51.00
2018-04-01T02:32:57.922Z,53.10
2018-04-01T02:33:57.915Z,53.00
2018-04-01T02:34:57.922Z,50.90
2018-04-01T02:35:57.912Z,52.70
2018-04-01T02:36:57.907Z,50.60
2018-04-01T02:37:57.914Z,50.80
2018-04-01T02:38:57.904Z,52.40
2018-04-01T02:39:57.916Z,52.60
2018-04-01T02:40:57.916Z,54.20
2018-04-01T02:41:58.529Z,53.00
2018-04-01T02:42:57.918Z,52.70
2018-04-01T02:43:57.917Z,54.50
2018-04-01T02:44:57.902Z,54.20
2018-04-01T02:45:57.906Z,53.60
2018-04-01T02:46:57.897Z,53.10
2018-04-01T02:47:57.911Z,52.80
2018-04-01T02:48:57.900Z,54.60
2018-04-01T02:49:57.903Z,53.10
2018-04-01T02:50:57.921Z,52.20
2018-04-01T02:51:57.915Z,55.30
2018-04-01T02:52:57.907Z,53.80
2018-04-01T02:53:57.906Z,54.00
2018-04-01T02:54:58.052Z,54.80
2018-04-01T02:55:57.905Z,54.60
2018-04-01T02:56:57.906Z,53.60
2018-04-01T02:57:57.907Z,53.80
2018-04-01T02:58:57.911Z,54.00
2018-04-01T02:59:57.905Z,55.60
2018-04-01T03:00:57.900Z,54.30
2018-04-01T03:01:57.902Z,52.80
2018-04-01T03:02:57.928Z,52.70
2018-04-01T03:03:57.911Z,53.70
2018-04-01T03:04:57.894Z,51.50
2018-04-01T03:05:57.900Z,52.30
2018-04-01T03:06:57.909Z,54.40
2018-04-01T03:07:58.539Z,52.80
2018-04-01T03:08:57.901Z,54.40
2018-04-01T03:09:57.892Z,52.60
2018-04-01T03:10:57.933Z,54.20
2018-04-01T03:11:57.906Z,53.90
2018-04-01T03:12:57.894Z,54.80
2018-04-01T03:13:57.892Z,57.50
2018-04-01T03:14:57.898Z,57.80
2018-04-01T03:15:57.904Z,54.00
2018-04-01T03:16:57.907Z,53.70
2018-04-01T03:17:57.894Z,55.00
2018-04-01T03:18:57.888Z,54.10
2018-04-01T03:19:57.890Z,56.90
2018-04-01T03:20:57.890Z,53.80
2018-04-01T03:21:57.893Z,54.60
2018-04-01T03:22:57.886Z,55.50
2018-04-01T03:23:57.892Z,54.30
2018-04-01T03:24:57.898Z,56.50
2018-04-01T03:25:57.891Z,54.70
2018-04-01T03:26:57.886Z,57.10
2018-04-01T03:27:57.901Z,56.20
2018-04-01T03:28:57.947Z,53.80
2018-04-01T03:29:57.918Z,53.30
2018-04-01T03:30:57.889Z,55.40
2018-04-01T03:31:57.879Z,54.70
2018-04-01T03:32:57.899Z,55.40
2018-04-01T03:33:57.894Z,54.10
2018-04-01T03:34:57.885Z,55.00
2018-04-01T03:35:57.890Z,55.10
2018-04-01T03:36:57.886Z,55.80
2018-04-01T03:37:57.891Z,53.20
2018-04-01T03:38:57.878Z,52.80
2018-04-01T03:39:57.874Z,53.80
2018-04-01T03:40:57.891Z,53.50
2018-04-01T03:41:57.896Z,52.90
2018-04-01T03:42:57.881Z,52.00
2018-04-01T03:43:57.880Z,53.90
2018-04-01T03:44:57.876Z,53.70
2018-04-01T03:45:57.881Z,53.00
2018-04-01T03:46:57.880Z,55.10
2018-04-01T03:47:57.882Z,53.90
2018-04-01T03:48:57.878Z,54.10
2018-04-01T03:49:57.874Z,53.20
2018-04-01T03:50:57.875Z,55.00
2018-04-01T03:51:57.887Z,54.10
2018-04-01T03:52:57.865Z,54.90
2018-04-01T03:53:57.878Z,55.80
2018-04-01T03:54:57.869Z,54.30
2018-04-01T03:55:57.875Z,53.80
2018-04-01T03:56:57.872Z,53.20
2018-04-01T03:57:57.874Z,52.20
2018-04-01T03:58:57.878Z,54.50
2018-04-01T03:59:57.875Z,53.90
2018-04-01T04:00:57.864Z,53.80
2018-04-01T04:01:57.860Z,53.60
2018-04-01T04:02:57.860Z,53.80
2018-04-01T04:03:57.870Z,53.80
2018-04-01T04:04:58.543Z,55.70
2018-04-01T04:05:57.869Z,55.50
2018-04-01T04:06:57.861Z,55.20
2018-04-01T04:07:57.860Z,56.20
2018-04-01T04:08:57.856Z,54.10
2018-04-01T04:09:57.977Z,54.60
2018-04-01T04:10:57.869Z,53.50
2018-04-01T04:11:57.853Z,53.40
2018-04-01T04:12:57.863Z,54.50
2018-04-01T04:13:57.851Z,55.80
2018-04-01T04:14:57.855Z,54.70
2018-04-01T04:15:57.852Z,53.30
2018-04-01T04:16:57.853Z,53.80
2018-04-01T04:17:57.852Z,52.90
2018-04-01T04:18:57.858Z,53.90
2018-04-01T04:19:57.869Z,55.10
2018-04-01T04:20:57.845Z,53.80
2018-04-01T04:21:57.850Z,54.00
2018-04-01T04:22:58.545Z,53.00
2018-04-01T04:23:57.854Z,53.20
2018-04-01T04:24:57.844Z,53.30
2018-04-01T04:25:57.856Z,51.90
2018-04-01T04:26:57.855Z,51.70
2018-04-01T04:27:57.841Z,52.90
2018-04-01T04:28:57.861Z,51.60
2018-04-01T04:29:57.836Z,52.70
2018-04-01T04:30:57.865Z,53.00
2018-04-01T04:31:57.842Z,53.60
2018-04-01T04:32:57.843Z,53.40
2018-04-01T04:33:57.847Z,52.20
2018-04-01T04:34:57.840Z,51.70
2018-04-01T04:35:57.844Z,50.50
2018-04-01T04:36:57.836Z,51.50
2018-04-01T04:37:57.833Z,52.30
2018-04-01T04:38:57.836Z,52.20
2018-04-01T04:39:57.842Z,53.00
2018-04-01T04:40:57.833Z,54.20
2018-04-01T04:41:57.835Z,53.80
2018-04-01T04:42:57.827Z,53.60
2018-04-01T04:43:57.827Z,53.90
2018-04-01T04:44:57.840Z,51.90
2018-04-01T04:45:57.856Z,51.60
2018-04-01T04:46:57.833Z,49.50
2018-04-01T04:47:57.826Z,47.80
2018-04-01T04:48:57.931Z,48.60
2018-04-01T04:49:57.836Z,49.40
2018-04-01T04:50:57.838Z,48.60
2018-04-01T04:51:57.835Z,51.10
2018-04-01T04:52:57.840Z,50.70
2018-04-01T04:53:57.825Z,51.20
2018-04-01T04:54:57.823Z,50.20
2018-04-01T04:55:57.829Z,49.30
2018-04-01T04:56:57.826Z,50.00
2018-04-01T04:57:57.821Z,50.30
2018-04-01T04:58:57.822Z,50.60
2018-04-01T04:59:57.824Z,50.80
2018-04-01T05:00:57.826Z,50.10
2018-04-01T05:01:57.828Z,51.30
2018-04-01T05:02:57.809Z,51.90
2018-04-01T05:03:57.834Z,51.90
2018-04-01T05:04:57.820Z,49.70
2018-04-01T05:05:57.831Z,50.40
2018-04-01T05:06:57.817Z,51.80
2018-04-01T05:07:57.813Z,51.10
2018-04-01T05:08:57.811Z,51.60
2018-04-01T05:09:57.874Z,51.00
2018-04-01T05:10:57.802Z,51.80
2018-04-01T05:11:57.807Z,51.80
2018-04-01T05:12:57.801Z,52.30
2018-04-01T05:13:57.807Z,53.00
2018-04-01T05:14:57.806Z,52.20
2018-04-01T05:15:57.811Z,51.70
2018-04-01T05:16:57.833Z,53.40
2018-04-01T05:17:57.804Z,52.70
2018-04-01T05:18:57.802Z,53.40
2018-04-01T05:19:57.800Z,53.90
2018-04-01T05:20:57.798Z,52.60
2018-04-01T05:21:57.798Z,52.40
2018-04-01T05:22:57.843Z,52.60
2018-04-01T05:23:57.788Z,52.80
2018-04-01T05:24:57.796Z,51.90
2018-04-01T05:25:57.793Z,53.30
2018-04-01T05:26:57.787Z,53.00
2018-04-01T05:27:57.786Z,52.90
2018-04-01T05:28:57.791Z,52.30
2018-04-01T05:29:57.785Z,53.30
2018-04-01T05:30:57.803Z,52.90
2018-04-01T05:31:57.792Z,52.20
2018-04-01T05:32:57.785Z,52.60
2018-04-01T05:33:57.787Z,53.70
2018-04-01T05:34:57.787Z,52.20
2018-04-01T05:35:57.791Z,53.10
2018-04-01T05:36:57.790Z,51.00
2018-04-01T05:37:57.783Z,51.70
2018-04-01T05:38:57.781Z,52.60
2018-04-01T05:39:57.778Z,53.50
2018-04-01T05:40:57.797Z,53.50
2018-04-01T05:41:57.781Z,53.20
2018-04-01T05:42:57.784Z,54.20
2018-04-01T05:43:57.777Z,53.00
2018-04-01T05:44:57.775Z,53.40
2018-04-01T05:45:57.778Z,51.50
2018-04-01T05:46:57.776Z,54.00
2018-04-01T05:47:57.777Z,53.40
2018-04-01T05:48:57.772Z,52.70
2018-04-01T05:49:57.767Z,53.00
2018-04-01T05:50:57.769Z,52.90
2018-04-01T05:51:57.765Z,52.90
2018-04-01T05:52:57.764Z,51.70
2018-04-01T05:53:57.765Z,51.90
2018-04-01T05:54:57.766Z,52.00
2018-04-01T05:55:57.777Z,52.90
2018-04-01T05:56:57.765Z,52.90
2018-04-01T05:57:57.767Z,54.10
2018-04-01T05:58:57.773Z,52.40
2018-04-01T05:59:57.761Z,54.40
2018-04-01T06:00:57.756Z,54.00
2018-04-01T06:01:57.761Z,53.80
2018-04-01T06:02:57.758Z,53.40
2018-04-01T06:03:57.752Z,53.00
2018-04-01T06:04:57.752Z,53.30
2018-04-01T06:05:57.747Z,51.60
2018-04-01T06:06:58.558Z,50.90
2018-04-01T06:07:57.759Z,52.20
2018-04-01T06:08:57.747Z,54.40
2018-04-01T06:09:57.742Z,54.40
2018-04-01T06:10:57.748Z,54.50
2018-04-01T06:11:57.750Z,53.70
2018-04-01T06:12:57.746Z,53.70
2018-04-01T06:13:57.740Z,53.90
2018-04-01T06:14:57.750Z,56.50
2018-04-01T06:15:57.746Z,52.60
2018-04-01T06:16:57.738Z,54.70
2018-04-01T06:17:57.740Z,57.50
2018-04-01T06:18:57.774Z,55.40
2018-04-01T06:19:58.561Z,55.60
2018-04-01T06:20:57.741Z,56.40
2018-04-01T06:21:57.737Z,56.20
2018-04-01T06:22:57.739Z,56.30
2018-04-01T06:23:57.738Z,53.90
2018-04-01T06:24:57.734Z,55.30
2018-04-01T06:25:57.742Z,53.90
2018-04-01T06:26:57.729Z,53.50
2018-04-01T06:27:57.744Z,52.70
2018-04-01T06:28:57.724Z,51.00
2018-04-01T06:29:57.739Z,53.30
2018-04-01T06:30:57.733Z,54.60
2018-04-01T06:31:57.732Z,58.00
2018-04-01T06:32:58.565Z,55.80
2018-04-01T06:33:57.728Z,58.10
2018-04-01T06:34:57.725Z,56.10
2018-04-01T06:35:57.720Z,54.50
2018-04-01T06:36:57.722Z,54.50
2018-04-01T06:37:57.729Z,56.70
2018-04-01T06:38:57.719Z,55.60
2018-04-01T06:39:57.766Z,54.70
2018-04-01T06:40:57.720Z,54.70
2018-04-01T06:41:57.723Z,56.40
2018-04-01T06:42:57.728Z,55.00
2018-04-01T06:43:57.716Z,52.90
2018-04-01T06:44:57.724Z,52.00
2018-04-01T06:45:57.720Z,48.80
2018-04-01T06:46:57.713Z,47.40
2018-04-01T06:47:57.718Z,46.10
2018-04-01T06:48:57.718Z,48.60
2018-04-01T06:49:57.716Z,50.60
2018-04-01T06:50:57.719Z,47.00
2018-04-01T06:51:57.717Z,48.60
2018-04-01T06:52:57.719Z,48.00
2018-04-01T06:53:57.732Z,49.50
2018-04-01T06:54:57.715Z,49.90
2018-04-01T06:55:57.714Z,51.60
2018-04-01T06:56:57.745Z,54.80
2018-04-01T06:57:57.709Z,52.50
2018-04-01T06:58:57.710Z,53.70
2018-04-01T06:59:57.711Z,53.60
2018-04-01T07:00:57.705Z,54.10
2018-04-01T07:01:57.703Z,54.60
2018-04-01T07:02:57.703Z,53.40
2018-04-01T07:03:57.701Z,52.20
2018-04-01T07:04:57.706Z,52.70
2018-04-01T07:05:57.688Z,52.80
2018-04-01T07:06:58.568Z,50.60
2018-04-01T07:07:57.704Z,50.80
2018-04-01T07:08:58.570Z,51.80
2018-04-01T07:09:57.710Z,51.40
2018-04-01T07:10:58.569Z,45.90
2018-04-01T07:11:57.689Z,43.80
2018-04-01T07:12:57.697Z,42.60
2018-04-01T07:13:57.694Z,43.00
2018-04-01T07:14:57.690Z,45.40
2018-04-01T07:15:57.689Z,46.60
2018-04-01T07:16:57.698Z,44.60
2018-04-01T07:17:57.699Z,44.00
2018-04-01T07:18:57.700Z,42.90
2018-04-01T07:19:57.704Z,41.60
2018-04-01T07:20:57.676Z,41.50
2018-04-01T07:21:57.676Z,41.10
2018-04-01T07:22:57.692Z,42.60
2018-04-01T07:23:57.678Z,41.70
2018-04-01T07:24:57.682Z,41.80
2018-04-01T07:25:57.684Z,43.50
2018-04-01T07:26:57.682Z,43.20
2018-04-01T07:27:57.677Z,42.10
2018-04-01T07:28:57.678Z,42.20
2018-04-01T07:29:57.674Z,43.60
2018-04-01T07:30:57.678Z,42.30
2018-04-01T07:31:57.694Z,40.80
2018-04-01T07:32:57.679Z,42.80
2018-04-01T07:33:57.668Z,42.30
2018-04-01T07:34:57.667Z,43.20
2018-04-01T07:35:57.680Z,44.50
2018-04-01T07:36:57.666Z,45.00
2018-04-01T07:37:57.706Z,41.80
2018-04-01T07:38:57.669Z,42.50
2018-04-01T07:39:57.668Z,42.80
2018-04-01T07:40:57.670Z,44.20
2018-04-01T07:41:57.653Z,47.30
2018-04-01T07:42:57.680Z,45.80
2018-04-01T07:43:57.664Z,47.50
2018-04-01T07:44:57.669Z,46.80
2018-04-01T07:45:57.669Z,44.70
2018-04-01T07:46:57.661Z,45.10
2018-04-01T07:47:57.660Z,45.10
2018-04-01T07:48:57.656Z,47.00
2018-04-01T07:49:57.661Z,45.80
2018-04-01T07:50:57.666Z,47.10
2018-04-01T07:51:57.656Z,48.00
2018-04-01T07:52:57.659Z,45.60
2018-04-01T07:53:57.663Z,46.50
2018-04-01T07:54:57.654Z,47.70
2018-04-01T07:55:57.650Z,48.40
2018-04-01T07:56:57.662Z,51.30
2018-04-01T07:57:57.653Z,52.10
2018-04-01T07:58:57.646Z,50.30
2018-04-01T07:59:57.648Z,51.70
2018-04-01T08:00:57.661Z,52.20
2018-04-01T08:01:57.642Z,53.40
2018-04-01T08:02:57.661Z,54.30
2018-04-01T08:03:57.710Z,49.30
2018-04-01T08:04:57.649Z,49.30
2018-04-01T08:05:57.647Z,46.90
2018-04-01T08:06:57.638Z,49.30
2018-04-01T08:07:57.635Z,47.10
2018-04-01T08:08:57.641Z,44.70
2018-04-01T08:09:57.636Z,45.50
2018-04-01T08:10:57.649Z,45.80
2018-04-01T08:11:57.641Z,45.90
2018-04-01T08:12:57.640Z,47.60
2018-04-01T08:13:57.637Z,44.50
2018-04-01T08:14:57.654Z,45.50
2018-04-01T08:15:57.640Z,44.80
2018-04-01T08:16:57.686Z,44.70
2018-04-01T08:17:57.635Z,45.10
2018-04-01T08:18:57.631Z,43.80
2018-04-01T08:19:57.644Z,44.20
2018-04-01T08:20:57.633Z,46.60
2018-04-01T08:21:57.674Z,46.70
2018-04-01T08:22:57.644Z,44.80
2018-04-01T08:23:57.639Z,47.10
2018-04-01T08:24:57.630Z,47.10
2018-04-01T08:25:57.640Z,46.70
2018-04-01T08:26:57.636Z,43.20
2018-04-01T08:27:57.628Z,42.10
2018-04-01T08:28:57.627Z,42.30
2018-04-01T08:29:57.635Z,41.80
2018-04-01T08:30:57.628Z,42.70
2018-04-01T08:31:57.654Z,44.00
2018-04-01T08:32:57.625Z,46.10
2018-04-01T08:33:57.630Z,45.80
2018-04-01T08:34:57.639Z,46.20
2018-04-01T08:35:57.638Z,46.70
2018-04-01T08:36:57.633Z,46.30
2018-04-01T08:37:57.625Z,45.50
2018-04-01T08:38:57.626Z,44.30
2018-04-01T08:39:57.638Z,47.00
2018-04-01T08:40:57.638Z,46.60
2018-04-01T08:41:57.630Z,47.60
2018-04-01T08:42:57.632Z,48.30
2018-04-01T08:43:57.645Z,45.90
2018-04-01T08:44:57.658Z,47.60
2018-04-01T08:45:57.660Z,48.60
2018-04-01T08:46:57.637Z,49.40
2018-04-01T08:47:57.631Z,47.20
2018-04-01T08:48:57.631Z,45.10
2018-04-01T08:49:57.633Z,47.50
2018-04-01T08:50:57.634Z,47.00
2018-04-01T08:51:57.635Z,49.60
2018-04-01T08:52:57.637Z,46.20
2018-04-01T08:53:57.635Z,47.30
2018-04-01T08:54:57.630Z,46.90
2018-04-01T08:55:57.645Z,46.60
2018-04-01T08:56:57.641Z,44.70
2018-04-01T08:57:57.624Z,46.60
2018-04-01T08:58:57.634Z,45.40
2018-04-01T08:59:57.625Z,45.90
2018-04-01T09:00:57.644Z,43.80
2018-04-01T09:01:57.637Z,42.60
2018-04-01T09:02:57.639Z,44.80
2018-04-01T09:03:57.638Z,44.40
2018-04-01T09:04:57.638Z,43.90
2018-04-01T09:05:57.628Z,40.60
2018-04-01T09:06:57.640Z,39.80
2018-04-01T09:07:57.622Z,40.60
2018-04-01T09:08:57.624Z,39.90
2018-04-01T09:09:57.644Z,42.20
2018-04-01T09:10:57.631Z,43.00
2018-04-01T09:11:57.632Z,46.00
2018-04-01T09:12:57.640Z,47.10
2018-04-01T09:13:57.641Z,46.30
2018-04-01T09:14:57.647Z,46.90
2018-04-01T09:15:57.636Z,45.30
2018-04-01T09:16:57.652Z,48.10
2018-04-01T09:17:57.635Z,47.30
2018-04-01T09:18:57.679Z,47.30
2018-04-01T09:19:57.637Z,48.60
2018-04-01T09:20:57.649Z,47.70
2018-04-01T09:21:57.640Z,47.40
2018-04-01T09:22:57.647Z,44.20
2018-04-01T09:23:57.647Z,45.50
2018-04-01T09:24:57.642Z,44.80
2018-04-01T09:25:57.644Z,44.80
2018-04-01T09:26:57.642Z,45.90
2018-04-01T09:27:57.644Z,43.90
2018-04-01T09:28:57.641Z,45.90
2018-04-01T09:29:57.637Z,46.10
2018-04-01T09:30:57.658Z,47.00
2018-04-01T09:31:57.643Z,47.20
2018-04-01T09:32:57.656Z,47.10
2018-04-01T09:33:57.649Z,45.90
2018-04-01T09:34:57.649Z,46.20
2018-04-01T09:35:57.641Z,49.20
2018-04-01T09:36:57.730Z,47.20
2018-04-01T09:37:57.647Z,46.70
2018-04-01T09:38:57.644Z,48.50
2018-04-01T09:39:57.645Z,47.30
2018-04-01T09:40:57.646Z,50.30
2018-04-01T09:41:57.644Z,49.60
2018-04-01T09:42:57.644Z,48.60
2018-04-01T09:43:57.647Z,50.20
2018-04-01T09:44:57.652Z,49.20
2018-04-01T09:45:57.638Z,47.90
2018-04-01T09:46:57.646Z,46.60
2018-04-01T09:47:57.660Z,45.90
2018-04-01T09:48:57.649Z,45.30
2018-04-01T09:49:57.703Z,50.20
2018-04-01T09:50:57.643Z,51.70
2018-04-01T09:51:57.651Z,49.20
2018-04-01T09:52:57.640Z,50.20
2018-04-01T09:53:57.640Z,50.40
2018-04-01T09:54:57.647Z,52.10
2018-04-01T09:55:57.653Z,53.50
2018-04-01T09:56:57.655Z,53.00
2018-04-01T09:57:57.661Z,55.90
2018-04-01T09:58:57.655Z,56.00
2018-04-01T09:59:57.642Z,56.30
2018-04-01T10:00:57.650Z,55.20
2018-04-01T10:01:57.653Z,53.50
2018-04-01T10:02:57.702Z,53.50
2018-04-01T10:03:57.652Z,52.80
2018-04-01T10:04:57.654Z,52.80
2018-04-01T10:05:57.648Z,54.20
2018-04-01T10:06:57.649Z,53.50
2018-04-01T10:07:57.658Z,53.70
2018-04-01T10:08:57.642Z,52.20
2018-04-01T10:09:57.648Z,52.90
2018-04-01T10:10:57.659Z,54.10
2018-04-01T10:11:57.651Z,53.20
2018-04-01T10:12:57.654Z,51.40
2018-04-01T10:13:57.648Z,53.20
2018-04-01T10:14:57.652Z,52.70
2018-04-01T10:15:57.706Z,53.60
2018-04-01T10:16:57.646Z,55.70
2018-04-01T10:17:57.660Z,53.00
2018-04-01T10:18:57.672Z,56.80
2018-04-01T10:19:57.648Z,58.00
2018-04-01T10:20:57.650Z,59.20
2018-04-01T10:21:57.654Z,60.00
2018-04-01T10:22:57.661Z,60.30
2018-04-01T10:23:57.644Z,61.20
2018-04-01T10:24:57.647Z,58.80
2018-04-01T10:25:57.653Z,59.50
2018-04-01T10:26:57.664Z,62.90
2018-04-01T10:27:57.663Z,63.30
2018-04-01T10:28:57.656Z,62.90
2018-04-01T10:29:57.652Z,61.50
2018-04-01T10:30:57.657Z,61.10
2018-04-01T10:31:57.638Z,64.00
2018-04-01T10:32:57.644Z,62.90
2018-04-01T10:33:57.641Z,63.50
2018-04-01T10:34:57.646Z,62.80
2018-04-01T10:35:57.642Z,62.80
2018-04-01T10:36:57.662Z,62.20
2018-04-01T10:37:57.665Z,59.70
2018-04-01T10:38:57.649Z,59.10
2018-04-01T10:39:57.674Z,60.80
2018-04-01T10:40:57.638Z,60.40
2018-04-01T10:41:57.658Z,57.30
2018-04-01T10:42:57.645Z,53.10
2018-04-01T10:43:57.649Z,56.60
2018-04-01T10:44:57.647Z,52.60
2018-04-01T10:45:57.647Z,57.60
2018-04-01T10:46:57.644Z,61.50
2018-04-01T10:47:57.643Z,65.20
2018-04-01T10:48:57.647Z,67.10
2018-04-01T10:49:57.649Z,70.60
2018-04-01T10:50:57.657Z,70.50
2018-04-01T10:51:57.645Z,71.50
2018-04-01T10:52:57.649Z,70.20
2018-04-01T10:53:57.656Z,68.60
2018-04-01T10:54:57.663Z,71.40
2018-04-01T10:55:57.645Z,73.90
2018-04-01T10:56:57.649Z,74.30
2018-04-01T10:57:57.667Z,71.40
2018-04-01T10:58:57.655Z,74.60
2018-04-01T10:59:57.651Z,75.90
2018-04-01T11:00:57.645Z,73.50
2018-04-01T11:01:57.651Z,75.70
2018-04-01T11:02:57.657Z,75.90
2018-04-01T11:03:57.652Z,76.00
2018-04-01T11:04:57.645Z,76.30
2018-04-01T11:05:57.656Z,77.00
2018-04-01T11:06:57.661Z,78.50
2018-04-01T11:07:57.651Z,76.30
2018-04-01T11:08:57.656Z,75.80
2018-04-01T11:09:57.648Z,75.10
2018-04-01T11:10:57.650Z,73.50
2018-04-01T11:11:57.656Z,74.10
2018-04-01T11:12:57.701Z,73.40
2018-04-01T11:13:57.659Z,75.70
2018-04-01T11:14:57.653Z,74.20
2018-04-01T11:15:57.657Z,73.20
2018-04-01T11:16:57.668Z,74.60
2018-04-01T11:17:57.642Z,73.70
2018-04-01T11:18:57.657Z,74.40
2018-04-01T11:19:57.652Z,76.90
2018-04-01T11:20:57.653Z,73.90
2018-04-01T11:21:57.650Z,69.80
2018-04-01T11:22:57.648Z,72.60
2018-04-01T11:23:57.646Z,71.60
2018-04-01T11:24:57.645Z,71.80
2018-04-01T11:25:57.710Z,73.30
2018-04-01T11:26:57.668Z,74.90
2018-04-01T11:27:57.654Z,70.00
2018-04-01T11:28:57.649Z,73.00
2018-04-01T11:29:57.653Z,71.80
2018-04-01T11:30:57.651Z,70.00
2018-04-01T11:31:57.656Z,68.30
2018-04-01T11:32:57.654Z,68.30
2018-04-01T11:33:57.645Z,70.20
2018-04-01T11:34:57.656Z,70.60
2018-04-01T11:35:57.657Z,70.60
2018-04-01T11:36:57.669Z,65.00
2018-04-01T11:37:57.657Z,69.50
2018-04-01T11:38:57.658Z,69.90
2018-04-01T11:39:57.660Z,68.50
2018-04-01T11:40:57.694Z,65.90
2018-04-01T11:41:57.655Z,62.30
2018-04-01T11:42:57.657Z,59.50
2018-04-01T11:43:57.667Z,61.10
2018-04-01T11:44:57.683Z,60.40
2018-04-01T11:45:57.656Z,60.80
2018-04-01T11:46:57.661Z,60.90
2018-04-01T11:47:57.670Z,60.40
2018-04-01T11:48:57.668Z,60.30
2018-04-01T11:49:57.668Z,59.60
2018-04-01T11:50:57.711Z,57.80
2018-04-01T11:51:57.664Z,59.00
2018-04-01T11:52:57.667Z,56.20
2018-04-01T11:53:57.675Z,54.30
2018-04-01T11:54:57.669Z,54.00
2018-04-01T11:55:57.678Z,53.70
2018-04-01T11:56:57.702Z,54.40
2018-04-01T11:57:57.676Z,56.00
2018-04-01T11:58:57.666Z,57.30
2018-04-01T11:59:57.671Z,57.70
2018-04-01T12:00:57.672Z,58.70
2018-04-01T12:01:57.678Z,60.70
2018-04-01T12:02:57.709Z,60.50
2018-04-01T12:03:57.671Z,61.90
2018-04-01T12:04:57.687Z,62.30
2018-04-01T12:05:57.689Z,64.00
2018-04-01T12:06:58.636Z,61.20
2018-04-01T12:07:57.678Z,60.80
2018-04-01T12:08:57.763Z,60.00
2018-04-01T12:09:57.680Z,56.30
2018-04-01T12:10:57.678Z,56.20
2018-04-01T12:11:57.692Z,56.70
2018-04-01T12:12:57.693Z,56.40
2018-04-01T12:13:57.690Z,54.80
2018-04-01T12:14:57.696Z,55.80
2018-04-01T12:15:57.687Z,54.50
2018-04-01T12:16:57.710Z,54.80
2018-04-01T12:17:57.691Z,55.80
2018-04-01T12:18:57.699Z,55.40
2018-04-01T12:19:57.793Z,53.70
2018-04-01T12:20:57.694Z,52.30
2018-04-01T12:21:57.692Z,50.20
2018-04-01T12:22:57.712Z,50.70
2018-04-01T12:23:57.705Z,51.70
2018-04-01T12:24:57.706Z,51.10
2018-04-01T12:25:57.706Z,52.70
2018-04-01T12:26:57.709Z,50.50
2018-04-01T12:27:57.711Z,51.70
2018-04-01T12:28:57.719Z,51.40
2018-04-01T12:29:57.720Z,52.10
2018-04-01T12:30:57.714Z,53.00
2018-04-01T12:31:57.709Z,51.00
2018-04-01T12:32:57.711Z,49.50
2018-04-01T12:33:57.721Z,49.80
2018-04-01T12:34:57.741Z,48.00
2018-04-01T12:35:57.721Z,48.40
2018-04-01T12:36:57.717Z,49.40
2018-04-01T12:37:57.727Z,51.20
2018-04-01T12:38:57.721Z,52.00
2018-04-01T12:39:57.727Z,50.50
2018-04-01T12:40:57.726Z,50.20
2018-04-01T12:41:57.757Z,51.30
2018-04-01T12:42:57.747Z,48.30
2018-04-01T12:43:57.722Z,48.00
2018-04-01T12:44:57.735Z,44.60
2018-04-01T12:45:57.732Z,45.90
2018-04-01T12:46:57.735Z,47.20
2018-04-01T12:47:57.731Z,48.10
2018-04-01T12:48:57.741Z,49.80
2018-04-01T12:49:57.775Z,48.70
2018-04-01T12:50:57.790Z,45.70
2018-04-01T12:51:57.741Z,46.80
2018-04-01T12:52:57.745Z,44.80